Portada
METAR-TAF:

METAR-TAF

Aeroports :

Illes Cocos, Austràlia

latitud: 12-11S, longitud: 096-49E, altitud: 3 m

Observació

L'informe es va fer fa 24 minuts, a les 12:30 UTC
Vent 7 kt del Est/Sud-Est
Temperatura 27°C
Humitat 94%
Pressió 1012 hPa
Visibilitat 10 km o més
Cel ennuvolat a una alçada de 1400 ft
Cel cobert a una alçada de 3000 ft

METAR: YPCC 241230Z AUTO 11007KT 9999 // BKN014 OVC030 27/26 Q1012

Hora: 19:24 (12:54 UTC)

Pronòstic

L'informe es va fer fa 1 hora i 45 minuts, a les 11:09 UTC
Pronòstic vàlid del 24 a les 12 UTC al 25 a les 12 UTC
Vent 14 kt del Est
Visibilitat: 2000 m
Núvols disperses a una alçada de 1300 ft
Cel ennuvolat a una alçada de 2000 ft
Cel ennuvolat a una alçada de 1000 ft
Cel ennuvolat a una alçada de 1000 ft
xàfecs de pluja, xàfecs de pluja, xàfecs de pluja

TAF: YPCC 241109Z 2412/2512 08014KT 9999 -SHRA SCT013 BKN020 INTER 2412/2414 2000 SHRA BKN010 INTER 2500/2510 2000 SHRA BKN010

Observacions i pronòstics meteorològics de més de 4000 aeroports (METAR i TAF).

Les estacions disponibles són els punts grocs i vermells al mapa.

Posi el ratolí al punt desitjat per veure el nom de l'estació.

Feu clic per veure les observacions i els pronòstics meteorològics.

Per canviar el mapa: feu clic els botons verds amb una creu de color negre per apropar; al botó verd amb un guió per allunyar la imatge; o en les fletxes verdes per a mapes adjacents.


METAR-TAF: